createdAt,value
2023-01-12T00:01:54.077Z,8.80
2023-01-12T00:04:40.580Z,8.80
2023-01-12T00:07:28.779Z,8.80
2023-01-12T00:10:15.782Z,8.80
2023-01-12T00:13:02.305Z,8.80
2023-01-12T00:16:07.644Z,8.80
2023-01-12T00:18:54.301Z,8.80
2023-01-12T00:21:53.044Z,8.80
2023-01-12T00:24:40.839Z,8.80
2023-01-12T00:27:27.422Z,8.90
2023-01-12T00:30:14.450Z,8.90
2023-01-12T00:33:02.492Z,8.90
2023-01-12T00:35:49.256Z,8.90
2023-01-12T00:38:36.621Z,8.90
2023-01-12T00:41:37.153Z,8.90
2023-01-12T00:44:41.282Z,8.90
2023-01-12T00:47:27.884Z,8.90
2023-01-12T00:50:17.834Z,8.90
2023-01-12T00:53:06.015Z,8.90
2023-01-12T00:55:52.428Z,9.00
2023-01-12T00:58:38.888Z,9.00
2023-01-12T01:01:25.237Z,9.00
2023-01-12T01:04:12.047Z,9.00
2023-01-12T01:06:59.900Z,9.00
2023-01-12T01:09:46.649Z,9.00
2023-01-12T01:12:34.219Z,9.10
2023-01-12T01:15:20.703Z,9.10
2023-01-12T01:18:07.333Z,9.10
2023-01-12T01:20:53.952Z,9.10
2023-01-12T01:23:42.937Z,9.10
2023-01-12T01:26:31.697Z,9.20
2023-01-12T01:29:18.466Z,9.10
2023-01-12T01:32:05.072Z,9.10
2023-01-12T01:34:52.005Z,9.10
2023-01-12T01:37:38.468Z,9.10
2023-01-12T01:40:26.312Z,9.20
2023-01-12T01:43:15.232Z,9.20
2023-01-12T01:46:04.707Z,9.20
2023-01-12T01:48:51.237Z,9.20
2023-01-12T01:51:37.996Z,9.20
2023-01-12T01:54:24.859Z,9.20
2023-01-12T01:57:13.909Z,9.30
2023-01-12T02:00:02.188Z,9.30
2023-01-12T02:02:49.494Z,9.30
2023-01-12T02:05:39.608Z,9.40
2023-01-12T02:08:32.009Z,9.40
2023-01-12T02:11:37.388Z,9.30
2023-01-12T02:14:42.657Z,9.30
2023-01-12T02:17:43.888Z,9.40
2023-01-12T02:20:54.863Z,9.40
2023-01-12T02:24:29.360Z,9.40
2023-01-12T02:27:38.913Z,9.40
2023-01-12T02:31:17.956Z,9.40
2023-01-12T02:34:13.771Z,9.40
2023-01-12T02:37:09.261Z,9.30
2023-01-12T02:40:00.362Z,9.40
2023-01-12T02:42:54.872Z,9.30
2023-01-12T02:45:49.026Z,9.30
2023-01-12T02:48:41.461Z,9.30
2023-01-12T02:51:33.611Z,9.30
2023-01-12T02:54:22.417Z,9.40
2023-01-12T02:57:11.524Z,9.30
2023-01-12T03:00:00.056Z,9.20
2023-01-12T03:02:46.541Z,9.20
2023-01-12T03:05:34.290Z,9.20
2023-01-12T03:08:23.723Z,9.20
2023-01-12T03:11:14.103Z,9.20
2023-01-12T03:14:03.772Z,9.20
2023-01-12T03:16:52.215Z,9.10
2023-01-12T03:19:41.555Z,9.10
2023-01-12T03:22:31.821Z,9.10
2023-01-12T03:25:19.592Z,9.20
2023-01-12T03:28:07.977Z,9.20
2023-01-12T03:30:57.465Z,9.20
2023-01-12T03:33:45.857Z,9.20
2023-01-12T03:36:42.067Z,9.10
2023-01-12T03:39:42.392Z,9.10
2023-01-12T03:42:32.641Z,9.20
2023-01-12T03:45:29.532Z,9.20
2023-01-12T03:48:21.926Z,9.20
2023-01-12T03:51:15.420Z,9.20
2023-01-12T03:54:04.474Z,9.20
2023-01-12T03:56:54.575Z,9.30
2023-01-12T03:59:41.788Z,9.30
2023-01-12T04:02:28.316Z,9.30
2023-01-12T04:05:16.191Z,9.30
2023-01-12T04:08:02.931Z,9.30
2023-01-12T04:10:49.280Z,9.40
2023-01-12T04:13:36.932Z,9.40
2023-01-12T04:16:23.767Z,9.40
2023-01-12T04:19:10.451Z,9.40
2023-01-12T04:22:14.168Z,9.40
2023-01-12T04:25:00.797Z,9.40
2023-01-12T04:27:49.120Z,9.40
2023-01-12T04:30:36.836Z,9.30
2023-01-12T04:33:23.144Z,9.40
2023-01-12T04:36:11.281Z,9.40
2023-01-12T04:38:57.882Z,9.30
2023-01-12T04:41:44.555Z,9.30
2023-01-12T04:44:32.368Z,9.30
2023-01-12T04:47:20.490Z,9.30
2023-01-12T04:50:07.547Z,9.30
2023-01-12T04:52:53.927Z,9.30
2023-01-12T04:55:42.744Z,9.40
2023-01-12T04:58:29.118Z,9.30
2023-01-12T05:01:17.684Z,9.40
2023-01-12T05:04:07.680Z,9.40
2023-01-12T05:06:54.440Z,9.30
2023-01-12T05:09:58.196Z,9.40
2023-01-12T05:12:44.867Z,9.40
2023-01-12T05:15:31.256Z,9.30
2023-01-12T05:18:17.584Z,9.30
2023-01-12T05:21:06.150Z,9.30
2023-01-12T05:23:53.598Z,9.20
2023-01-12T05:26:40.053Z,9.30
2023-01-12T05:29:26.268Z,9.20
2023-01-12T05:32:12.581Z,9.20
2023-01-12T05:34:58.952Z,9.10
2023-01-12T05:37:46.900Z,9.10
2023-01-12T05:40:33.508Z,9.10
2023-01-12T05:43:37.777Z,9.10
2023-01-12T05:46:26.223Z,9.10
2023-01-12T05:49:12.688Z,9.00
2023-01-12T05:51:58.921Z,9.10
2023-01-12T05:54:46.631Z,9.10
2023-01-12T05:57:32.989Z,9.10
2023-01-12T06:00:20.357Z,9.10
2023-01-12T06:03:06.882Z,9.20
2023-01-12T06:05:55.735Z,9.20
2023-01-12T06:08:42.373Z,9.20
2023-01-12T06:11:44.377Z,9.30
2023-01-12T06:14:31.614Z,9.30
2023-01-12T06:17:18.109Z,9.30
2023-01-12T06:20:04.996Z,9.30
2023-01-12T06:22:51.581Z,9.30
2023-01-12T06:25:37.838Z,9.30
2023-01-12T06:28:25.521Z,9.30
2023-01-12T06:31:14.132Z,9.40
2023-01-12T06:34:00.710Z,9.30
2023-01-12T06:36:47.281Z,9.40
2023-01-12T06:39:33.898Z,9.40
2023-01-12T06:42:32.858Z,9.40
2023-01-12T06:45:21.043Z,9.40
2023-01-12T06:48:07.805Z,9.40
2023-01-12T06:50:55.943Z,9.40
2023-01-12T06:53:42.664Z,9.40
2023-01-12T06:56:29.169Z,9.40
2023-01-12T06:59:15.633Z,9.50
2023-01-12T07:02:03.660Z,9.50
2023-01-12T07:04:50.294Z,9.60
2023-01-12T07:07:39.272Z,9.50
2023-01-12T07:10:26.587Z,9.50
2023-01-12T07:13:13.010Z,9.50
2023-01-12T07:16:00.576Z,9.60
2023-01-12T07:18:49.568Z,9.60
2023-01-12T07:21:36.070Z,9.60
2023-01-12T07:24:22.744Z,9.60
2023-01-12T07:27:09.124Z,9.70
2023-01-12T07:29:55.849Z,9.70
2023-01-12T07:32:42.492Z,9.70
2023-01-12T07:35:30.433Z,9.70
2023-01-12T07:38:16.681Z,9.70
2023-01-12T07:41:03.816Z,9.70
2023-01-12T07:43:50.399Z,9.70
2023-01-12T07:46:36.830Z,9.80
2023-01-12T07:49:23.748Z,9.70
2023-01-12T07:52:12.941Z,9.80
2023-01-12T07:54:59.383Z,9.80
2023-01-12T07:57:54.045Z,9.80
2023-01-12T08:00:40.658Z,9.80
2023-01-12T08:03:27.242Z,9.80
2023-01-12T08:06:13.546Z,9.80
2023-01-12T08:09:01.370Z,9.80
2023-01-12T08:11:48.136Z,9.80
2023-01-12T08:14:38.019Z,9.80
2023-01-12T08:17:25.357Z,9.90
2023-01-12T08:20:17.158Z,9.90
2023-01-12T08:23:10.711Z,9.90
2023-01-12T08:26:02.258Z,9.90
2023-01-12T08:28:52.205Z,9.90
2023-01-12T08:31:40.061Z,9.90
2023-01-12T08:34:27.538Z,9.90
2023-01-12T08:37:17.403Z,9.90
2023-01-12T08:40:07.110Z,9.90
2023-01-12T08:42:54.939Z,9.90
2023-01-12T08:45:41.540Z,9.90
2023-01-12T08:48:28.024Z,9.90
2023-01-12T08:51:14.495Z,9.90
2023-01-12T08:54:02.261Z,9.90
2023-01-12T08:56:49.215Z,10.00
2023-01-12T08:59:37.013Z,10.00
2023-01-12T09:02:25.258Z,10.00
2023-01-12T09:05:11.765Z,10.10
2023-01-12T09:07:58.018Z,10.00
2023-01-12T09:10:44.372Z,10.00
2023-01-12T09:13:30.791Z,10.00
2023-01-12T09:16:19.999Z,10.10
2023-01-12T09:19:06.974Z,10.00
2023-01-12T09:21:53.198Z,10.00
2023-01-12T09:24:39.566Z,10.00
2023-01-12T09:27:25.831Z,10.00
2023-01-12T09:30:13.239Z,10.00
2023-01-12T09:33:01.681Z,10.10
2023-01-12T09:35:48.440Z,10.10
2023-01-12T09:38:37.195Z,10.10
2023-01-12T09:41:41.044Z,10.10
2023-01-12T09:44:48.063Z,10.20
2023-01-12T09:47:40.120Z,10.20
2023-01-12T09:50:33.485Z,10.20
2023-01-12T09:53:24.288Z,10.20
2023-01-12T09:56:19.614Z,10.20
2023-01-12T09:59:25.878Z,10.20
2023-01-12T10:02:14.851Z,10.30
2023-01-12T10:05:06.912Z,10.30
2023-01-12T10:07:56.595Z,10.30
2023-01-12T10:10:50.107Z,10.30
2023-01-12T10:14:06.212Z,10.30
2023-01-12T10:17:04.150Z,10.30
2023-01-12T10:20:02.017Z,10.40
2023-01-12T10:22:53.638Z,10.40
2023-01-12T10:25:43.457Z,10.50
2023-01-12T10:28:33.393Z,10.50
2023-01-12T10:31:23.787Z,10.50
2023-01-12T10:34:12.321Z,10.50
2023-01-12T10:37:10.346Z,10.50
2023-01-12T10:39:57.321Z,10.60
2023-01-12T10:43:15.694Z,10.60
2023-01-12T10:46:15.074Z,10.60
2023-01-12T10:49:17.746Z,10.60
2023-01-12T10:52:10.404Z,10.60
2023-01-12T10:54:58.934Z,10.60
2023-01-12T10:57:49.206Z,10.60
2023-01-12T11:00:36.659Z,10.60
2023-01-12T11:03:32.527Z,10.70
2023-01-12T11:06:27.692Z,10.90
2023-01-12T11:09:20.092Z,11.00
2023-01-12T11:12:20.241Z,11.30
2023-01-12T11:15:18.954Z,11.40
2023-01-12T11:18:23.068Z,11.50
2023-01-12T11:21:12.336Z,11.60
2023-01-12T11:24:05.362Z,11.60
2023-01-12T11:26:56.805Z,11.80
2023-01-12T11:29:54.397Z,11.70
2023-01-12T11:32:47.070Z,11.60
2023-01-12T11:35:37.208Z,11.70
2023-01-12T11:38:28.572Z,11.70
2023-01-12T11:41:23.236Z,11.70
2023-01-12T11:44:16.372Z,11.90
2023-01-12T11:47:07.541Z,11.90
2023-01-12T11:50:03.263Z,12.10
2023-01-12T11:52:50.288Z,12.10
2023-01-12T11:55:52.327Z,12.10
2023-01-12T11:58:48.236Z,12.10
2023-01-12T12:01:42.716Z,12.00
2023-01-12T12:04:48.249Z,11.90
2023-01-12T12:07:55.891Z,12.00
2023-01-12T12:10:48.800Z,12.10
2023-01-12T12:13:43.258Z,12.10
2023-01-12T12:16:37.895Z,11.90
2023-01-12T12:19:34.557Z,11.90
2023-01-12T12:22:35.205Z,11.80
2023-01-12T12:25:32.036Z,11.80
2023-01-12T12:28:54.893Z,11.70
2023-01-12T12:31:56.770Z,11.70
2023-01-12T12:35:04.508Z,11.80
2023-01-12T12:37:58.554Z,11.90
2023-01-12T12:41:17.664Z,11.90
2023-01-12T12:44:42.824Z,11.80
2023-01-12T12:47:42.264Z,11.80
2023-01-12T12:50:32.228Z,11.60
2023-01-12T12:53:26.429Z,11.60
2023-01-12T12:56:16.732Z,11.70
2023-01-12T12:59:03.927Z,11.60
2023-01-12T13:01:58.266Z,11.60
2023-01-12T13:05:04.891Z,11.70
2023-01-12T13:07:53.644Z,11.70
2023-01-12T13:10:40.453Z,11.70
2023-01-12T13:13:31.262Z,11.70
2023-01-12T13:16:52.564Z,11.70
2023-01-12T13:19:41.459Z,11.60
2023-01-12T13:22:32.221Z,11.70
2023-01-12T13:25:52.121Z,11.60
2023-01-12T13:28:40.295Z,11.60
2023-01-12T13:31:33.779Z,11.60
2023-01-12T13:34:30.206Z,11.60
2023-01-12T13:37:24.190Z,11.60
2023-01-12T13:40:17.615Z,11.70
2023-01-12T13:43:19.758Z,11.80
2023-01-12T13:46:15.692Z,11.80
2023-01-12T13:49:04.027Z,11.70
2023-01-12T13:51:59.264Z,11.70
2023-01-12T13:54:50.352Z,11.80
2023-01-12T13:57:37.425Z,11.70
2023-01-12T14:00:25.032Z,11.70
2023-01-12T14:03:21.187Z,11.60
2023-01-12T14:06:15.271Z,11.50
2023-01-12T14:09:11.792Z,11.50
2023-01-12T14:12:19.664Z,11.50
2023-01-12T14:15:41.551Z,11.50
2023-01-12T14:18:41.511Z,11.40
2023-01-12T14:21:31.651Z,11.30
2023-01-12T14:24:21.727Z,11.30
2023-01-12T14:27:23.861Z,11.30
2023-01-12T14:30:13.552Z,11.30
2023-01-12T14:33:00.425Z,11.30
2023-01-12T14:35:52.072Z,11.40
2023-01-12T14:38:43.580Z,11.30
2023-01-12T14:41:48.689Z,11.40
2023-01-12T14:44:57.416Z,11.40
2023-01-12T14:47:44.025Z,11.40
2023-01-12T14:50:30.928Z,11.40
2023-01-12T14:53:33.655Z,11.30
2023-01-12T14:56:23.888Z,11.40
2023-01-12T14:59:16.009Z,11.40
2023-01-12T15:02:21.779Z,11.30
2023-01-12T15:05:21.083Z,11.30
2023-01-12T15:08:26.683Z,11.30
2023-01-12T15:11:15.553Z,11.30
2023-01-12T15:14:04.380Z,11.30
2023-01-12T15:17:08.206Z,11.30
2023-01-12T15:20:12.103Z,11.30
2023-01-12T15:23:16.029Z,11.30
2023-01-12T15:26:02.811Z,11.30
2023-01-12T15:28:51.057Z,11.30
2023-01-12T15:31:39.342Z,11.20
2023-01-12T15:34:26.053Z,11.10
2023-01-12T15:37:15.828Z,11.10
2023-01-12T15:40:02.552Z,11.10
2023-01-12T15:42:52.950Z,11.10
2023-01-12T15:45:43.019Z,11.00
2023-01-12T15:48:29.694Z,11.00
2023-01-12T15:51:16.909Z,11.00
2023-01-12T15:54:04.027Z,11.00
2023-01-12T15:56:50.681Z,11.00
2023-01-12T15:59:37.449Z,10.90
2023-01-12T16:02:31.747Z,10.90
2023-01-12T16:05:20.799Z,11.00
2023-01-12T16:08:07.504Z,11.00
2023-01-12T16:11:08.429Z,11.00
2023-01-12T16:13:55.798Z,11.00
2023-01-12T16:16:42.871Z,11.00
2023-01-12T16:19:31.208Z,11.00
2023-01-12T16:22:21.068Z,11.00
2023-01-12T16:25:08.688Z,11.10
2023-01-12T16:28:00.432Z,11.10
2023-01-12T16:30:48.176Z,11.10
2023-01-12T16:33:34.627Z,11.10
2023-01-12T16:36:22.238Z,11.10
2023-01-12T16:39:08.757Z,11.20
2023-01-12T16:42:00.242Z,11.20
2023-01-12T16:44:50.447Z,11.20
2023-01-12T16:47:37.362Z,11.20
2023-01-12T16:50:23.733Z,11.10
2023-01-12T16:53:13.182Z,11.10
2023-01-12T16:56:03.000Z,11.10
2023-01-12T16:58:49.831Z,11.00
2023-01-12T17:01:36.868Z,11.00
2023-01-12T17:04:23.633Z,11.00
2023-01-12T17:07:11.211Z,10.90
2023-01-12T17:09:59.311Z,10.90
2023-01-12T17:12:54.176Z,10.90
2023-01-12T17:15:44.937Z,10.90
2023-01-12T17:18:31.422Z,10.90
2023-01-12T17:21:19.813Z,10.90
2023-01-12T17:24:07.201Z,10.90
2023-01-12T17:26:56.375Z,10.90
2023-01-12T17:29:43.699Z,10.90
2023-01-12T17:32:30.636Z,10.90
2023-01-12T17:35:17.027Z,10.90
2023-01-12T17:38:03.619Z,10.90
2023-01-12T17:40:50.297Z,11.00
2023-01-12T17:43:37.965Z,10.90
2023-01-12T17:46:24.724Z,10.90
2023-01-12T17:49:12.402Z,10.90
2023-01-12T17:51:59.035Z,10.90
2023-01-12T17:54:45.502Z,10.90
2023-01-12T17:57:32.489Z,10.90
2023-01-12T18:00:22.192Z,10.90
2023-01-12T18:03:08.734Z,10.90
2023-01-12T18:06:04.539Z,10.90
2023-01-12T18:08:53.925Z,10.90
2023-01-12T18:11:41.562Z,10.90
2023-01-12T18:14:27.892Z,10.90
2023-01-12T18:17:15.687Z,10.90
2023-01-12T18:20:02.416Z,10.90
2023-01-12T18:22:49.851Z,10.90
2023-01-12T18:25:37.399Z,10.90
2023-01-12T18:28:24.273Z,10.90
2023-01-12T18:31:12.195Z,10.90
2023-01-12T18:34:03.523Z,10.90
2023-01-12T18:36:50.024Z,10.80
2023-01-12T18:39:36.501Z,10.80
2023-01-12T18:42:40.407Z,10.90
2023-01-12T18:45:27.159Z,10.90
2023-01-12T18:48:23.250Z,10.90
2023-01-12T18:51:28.875Z,10.90
2023-01-12T18:54:15.399Z,10.90
2023-01-12T18:57:01.742Z,10.90
2023-01-12T18:59:48.833Z,10.90
2023-01-12T19:02:35.566Z,10.90
2023-01-12T19:05:26.311Z,10.90
2023-01-12T19:08:31.309Z,10.90
2023-01-12T19:11:17.878Z,10.90
2023-01-12T19:14:22.097Z,11.00
2023-01-12T19:17:29.570Z,11.00
2023-01-12T19:20:17.342Z,10.90
2023-01-12T19:23:21.416Z,11.00
2023-01-12T19:26:27.811Z,11.00
2023-01-12T19:29:14.401Z,11.00
2023-01-12T19:32:01.007Z,11.00
2023-01-12T19:34:49.155Z,10.90
2023-01-12T19:37:35.881Z,10.90
2023-01-12T19:40:27.449Z,10.90
2023-01-12T19:43:20.231Z,11.00
2023-01-12T19:46:06.960Z,11.00
2023-01-12T19:48:53.429Z,11.00
2023-01-12T19:51:40.430Z,11.00
2023-01-12T19:54:27.263Z,11.00
2023-01-12T19:57:13.610Z,11.00
2023-01-12T20:00:01.786Z,11.00
2023-01-12T20:02:59.266Z,11.00
2023-01-12T20:05:47.653Z,11.00
2023-01-12T20:08:34.050Z,11.00
2023-01-12T20:11:20.470Z,11.00
2023-01-12T20:14:06.807Z,11.00
2023-01-12T20:16:54.443Z,11.00
2023-01-12T20:19:40.994Z,11.00
2023-01-12T20:22:27.644Z,11.00
2023-01-12T20:25:14.006Z,11.00
2023-01-12T20:28:00.474Z,11.00
2023-01-12T20:30:47.486Z,11.00
2023-01-12T20:33:35.726Z,11.00
2023-01-12T20:36:22.295Z,11.00
2023-01-12T20:39:10.923Z,11.00
2023-01-12T20:41:57.671Z,11.00
2023-01-12T20:44:44.006Z,10.90
2023-01-12T20:47:31.993Z,11.00
2023-01-12T20:50:19.956Z,11.00
2023-01-12T20:53:06.464Z,11.00
2023-01-12T20:55:52.974Z,11.00
2023-01-12T20:58:40.027Z,11.00
2023-01-12T21:01:27.205Z,11.00
2023-01-12T21:04:13.779Z,11.00
2023-01-12T21:07:01.588Z,11.00
2023-01-12T21:09:48.213Z,11.00
2023-01-12T21:12:34.794Z,11.00
2023-01-12T21:15:21.734Z,11.00
2023-01-12T21:18:08.693Z,11.10
2023-01-12T21:20:55.059Z,11.00
2023-01-12T21:23:43.099Z,11.10
2023-01-12T21:26:29.384Z,11.00
2023-01-12T21:29:15.922Z,11.10
2023-01-12T21:32:02.267Z,11.10
2023-01-12T21:34:51.307Z,11.10
2023-01-12T21:37:37.580Z,11.10
2023-01-12T21:40:26.108Z,11.10
2023-01-12T21:43:15.647Z,11.10
2023-01-12T21:46:06.229Z,11.10
2023-01-12T21:48:52.684Z,11.20
2023-01-12T21:51:39.364Z,11.20
2023-01-12T21:54:25.984Z,11.20
2023-01-12T21:57:13.589Z,11.20
2023-01-12T22:00:00.232Z,11.20
2023-01-12T22:02:46.854Z,11.20
2023-01-12T22:05:34.782Z,11.20
2023-01-12T22:08:21.413Z,11.30
2023-01-12T22:11:09.496Z,11.20
2023-01-12T22:13:57.391Z,11.20
2023-01-12T22:16:43.941Z,11.30
2023-01-12T22:19:31.760Z,11.30
2023-01-12T22:22:18.364Z,11.20
2023-01-12T22:25:05.325Z,11.20
2023-01-12T22:27:52.158Z,11.30
2023-01-12T22:30:39.837Z,11.30
2023-01-12T22:33:26.660Z,11.30
2023-01-12T22:36:12.987Z,11.30
2023-01-12T22:38:59.566Z,11.40
2023-01-12T22:41:47.342Z,11.40
2023-01-12T22:44:33.732Z,11.40
2023-01-12T22:47:22.124Z,11.40
2023-01-12T22:50:10.101Z,11.40
2023-01-12T22:52:56.827Z,11.40
2023-01-12T22:55:43.147Z,11.40
2023-01-12T22:58:29.935Z,11.40
2023-01-12T23:01:17.855Z,11.40
2023-01-12T23:04:06.187Z,11.40
2023-01-12T23:06:52.544Z,11.40
2023-01-12T23:09:38.969Z,11.40
2023-01-12T23:12:25.400Z,11.40
2023-01-12T23:15:12.232Z,11.40
2023-01-12T23:17:59.688Z,11.40
2023-01-12T23:20:48.061Z,11.40
2023-01-12T23:23:34.769Z,11.40
2023-01-12T23:26:24.938Z,11.40
2023-01-12T23:29:11.673Z,11.40
2023-01-12T23:31:57.924Z,11.40
2023-01-12T23:34:44.418Z,11.40
2023-01-12T23:37:32.193Z,11.50
2023-01-12T23:40:18.876Z,11.40
2023-01-12T23:43:05.348Z,11.40
2023-01-12T23:45:52.291Z,11.40
2023-01-12T23:48:40.799Z,11.40
2023-01-12T23:51:28.672Z,11.40
2023-01-12T23:54:18.899Z,11.40
2023-01-12T23:57:05.919Z,11.40
2023-01-12T23:59:52.450Z,11.40
